sensor_id;sensor_type;location;lat;lon;timestamp;P1;durP1;ratioP1;P2;durP2;ratioP2
35026;SDS011;60696;51.426;6.934;2022-12-18T00:00:58;5.93;;;2.10;;
35026;SDS011;60696;51.426;6.934;2022-12-18T00:03:24;7.63;;;2.33;;
35026;SDS011;60696;51.426;6.934;2022-12-18T00:05:51;5.88;;;1.80;;
35026;SDS011;60696;51.426;6.934;2022-12-18T00:08:17;6.00;;;1.88;;
35026;SDS011;60696;51.426;6.934;2022-12-18T00:10:44;4.95;;;2.03;;
35026;SDS011;60696;51.426;6.934;2022-12-18T00:13:10;3.30;;;1.95;;
35026;SDS011;60696;51.426;6.934;2022-12-18T00:15:37;5.20;;;2.25;;
35026;SDS011;60696;51.426;6.934;2022-12-18T00:18:03;5.35;;;2.25;;
35026;SDS011;60696;51.426;6.934;2022-12-18T00:20:29;3.20;;;1.65;;
35026;SDS011;60696;51.426;6.934;2022-12-18T00:22:55;4.13;;;2.20;;
35026;SDS011;60696;51.426;6.934;2022-12-18T00:25:21;4.60;;;2.42;;
35026;SDS011;60696;51.426;6.934;2022-12-18T00:27:46;5.63;;;2.72;;
35026;SDS011;60696;51.426;6.934;2022-12-18T00:30:12;5.63;;;1.73;;
35026;SDS011;60696;51.426;6.934;2022-12-18T00:32:38;11.30;;;2.50;;
35026;SDS011;60696;51.426;6.934;2022-12-18T00:35:04;8.65;;;2.70;;
35026;SDS011;60696;51.426;6.934;2022-12-18T00:37:30;5.82;;;2.58;;
35026;SDS011;60696;51.426;6.934;2022-12-18T00:39:55;6.05;;;1.75;;
35026;SDS011;60696;51.426;6.934;2022-12-18T00:42:21;5.07;;;2.25;;
35026;SDS011;60696;51.426;6.934;2022-12-18T00:45:05;8.23;;;2.28;;
35026;SDS011;60696;51.426;6.934;2022-12-18T00:47:31;4.80;;;2.25;;
35026;SDS011;60696;51.426;6.934;2022-12-18T00:49:57;3.20;;;1.13;;
35026;SDS011;60696;51.426;6.934;2022-12-18T00:52:22;3.95;;;1.95;;
35026;SDS011;60696;51.426;6.934;2022-12-18T00:54:48;4.93;;;2.30;;
35026;SDS011;60696;51.426;6.934;2022-12-18T00:57:13;3.97;;;2.20;;
35026;SDS011;60696;51.426;6.934;2022-12-18T00:59:39;9.75;;;2.53;;
35026;SDS011;60696;51.426;6.934;2022-12-18T01:02:04;5.97;;;2.17;;
35026;SDS011;60696;51.426;6.934;2022-12-18T01:04:33;4.40;;;2.20;;
35026;SDS011;60696;51.426;6.934;2022-12-18T01:06:59;5.60;;;2.50;;
35026;SDS011;60696;51.426;6.934;2022-12-18T01:09:25;5.80;;;2.40;;
35026;SDS011;60696;51.426;6.934;2022-12-18T01:11:51;8.55;;;2.85;;
35026;SDS011;60696;51.426;6.934;2022-12-18T01:14:16;7.95;;;2.38;;
35026;SDS011;60696;51.426;6.934;2022-12-18T01:16:42;5.00;;;2.55;;
35026;SDS011;60696;51.426;6.934;2022-12-18T01:19:08;2.58;;;1.52;;
35026;SDS011;60696;51.426;6.934;2022-12-18T01:21:33;3.78;;;2.28;;
35026;SDS011;60696;51.426;6.934;2022-12-18T01:23:59;4.18;;;2.10;;
35026;SDS011;60696;51.426;6.934;2022-12-18T01:26:25;13.43;;;2.30;;
35026;SDS011;60696;51.426;6.934;2022-12-18T01:28:54;4.22;;;2.30;;
35026;SDS011;60696;51.426;6.934;2022-12-18T01:31:24;4.32;;;1.80;;
35026;SDS011;60696;51.426;6.934;2022-12-18T01:33:55;1.60;;;1.15;;
35026;SDS011;60696;51.426;6.934;2022-12-18T01:36:22;3.60;;;1.83;;
35026;SDS011;60696;51.426;6.934;2022-12-18T01:38:49;3.88;;;2.40;;
35026;SDS011;60696;51.426;6.934;2022-12-18T01:41:16;6.47;;;2.42;;
35026;SDS011;60696;51.426;6.934;2022-12-18T01:43:49;8.00;;;2.53;;
35026;SDS011;60696;51.426;6.934;2022-12-18T01:46:20;4.60;;;2.35;;
35026;SDS011;60696;51.426;6.934;2022-12-18T01:48:51;7.35;;;2.33;;
35026;SDS011;60696;51.426;6.934;2022-12-18T01:51:25;5.45;;;2.65;;
35026;SDS011;60696;51.426;6.934;2022-12-18T01:53:53;3.53;;;2.17;;
35026;SDS011;60696;51.426;6.934;2022-12-18T01:56:19;7.22;;;2.15;;
35026;SDS011;60696;51.426;6.934;2022-12-18T02:01:15;6.95;;;2.45;;
35026;SDS011;60696;51.426;6.934;2022-12-18T02:03:41;4.68;;;2.25;;
35026;SDS011;60696;51.426;6.934;2022-12-18T02:06:19;6.25;;;2.95;;
35026;SDS011;60696;51.426;6.934;2022-12-18T02:17:05;6.57;;;2.08;;
35026;SDS011;60696;51.426;6.934;2022-12-18T02:20:01;4.25;;;2.28;;
35026;SDS011;60696;51.426;6.934;2022-12-18T02:27:44;6.45;;;2.25;;
35026;SDS011;60696;51.426;6.934;2022-12-18T02:30:12;3.30;;;2.15;;
35026;SDS011;60696;51.426;6.934;2022-12-18T02:32:39;5.40;;;2.78;;
35026;SDS011;60696;51.426;6.934;2022-12-18T02:35:09;4.35;;;2.38;;
35026;SDS011;60696;51.426;6.934;2022-12-18T02:37:40;6.40;;;2.85;;
35026;SDS011;60696;51.426;6.934;2022-12-18T02:40:08;4.45;;;2.15;;
35026;SDS011;60696;51.426;6.934;2022-12-18T02:42:35;5.70;;;2.60;;
35026;SDS011;60696;51.426;6.934;2022-12-18T02:45:00;4.93;;;2.67;;
35026;SDS011;60696;51.426;6.934;2022-12-18T02:47:30;4.63;;;2.10;;
35026;SDS011;60696;51.426;6.934;2022-12-18T02:50:41;4.80;;;2.72;;
35026;SDS011;60696;51.426;6.934;2022-12-18T02:53:17;7.65;;;2.47;;
35026;SDS011;60696;51.426;6.934;2022-12-18T02:56:19;4.75;;;2.00;;
35026;SDS011;60696;51.426;6.934;2022-12-18T02:58:59;8.90;;;2.55;;
35026;SDS011;60696;51.426;6.934;2022-12-18T03:06:54;5.05;;;2.03;;
35026;SDS011;60696;51.426;6.934;2022-12-18T03:09:25;4.88;;;2.30;;
35026;SDS011;60696;51.426;6.934;2022-12-18T03:12:20;5.03;;;2.22;;
35026;SDS011;60696;51.426;6.934;2022-12-18T03:15:00;7.15;;;3.33;;
35026;SDS011;60696;51.426;6.934;2022-12-18T03:17:46;6.25;;;2.55;;
35026;SDS011;60696;51.426;6.934;2022-12-18T03:20:17;6.55;;;2.75;;
35026;SDS011;60696;51.426;6.934;2022-12-18T03:22:46;9.07;;;2.67;;
35026;SDS011;60696;51.426;6.934;2022-12-18T03:25:17;5.50;;;2.22;;
35026;SDS011;60696;51.426;6.934;2022-12-18T03:27:46;4.75;;;2.30;;
35026;SDS011;60696;51.426;6.934;2022-12-18T03:30:14;5.40;;;2.10;;
35026;SDS011;60696;51.426;6.934;2022-12-18T03:35:14;4.65;;;2.67;;
35026;SDS011;60696;51.426;6.934;2022-12-18T03:37:44;5.05;;;1.67;;
35026;SDS011;60696;51.426;6.934;2022-12-18T03:40:10;4.22;;;2.53;;
35026;SDS011;60696;51.426;6.934;2022-12-18T03:45:18;6.43;;;2.30;;
35026;SDS011;60696;51.426;6.934;2022-12-18T03:55:25;3.90;;;2.33;;
35026;SDS011;60696;51.426;6.934;2022-12-18T03:57:54;3.10;;;1.85;;
35026;SDS011;60696;51.426;6.934;2022-12-18T04:00:20;4.95;;;2.40;;
35026;SDS011;60696;51.426;6.934;2022-12-18T04:02:48;3.67;;;2.00;;
35026;SDS011;60696;51.426;6.934;2022-12-18T04:05:17;3.22;;;1.88;;
35026;SDS011;60696;51.426;6.934;2022-12-18T04:07:44;2.95;;;1.40;;
35026;SDS011;60696;51.426;6.934;2022-12-18T04:10:12;5.22;;;1.55;;
35026;SDS011;60696;51.426;6.934;2022-12-18T04:12:40;3.38;;;1.55;;
35026;SDS011;60696;51.426;6.934;2022-12-18T04:15:07;3.63;;;1.98;;
35026;SDS011;60696;51.426;6.934;2022-12-18T04:17:33;3.63;;;1.85;;
35026;SDS011;60696;51.426;6.934;2022-12-18T04:19:59;4.90;;;2.03;;
35026;SDS011;60696;51.426;6.934;2022-12-18T04:22:24;4.25;;;1.67;;
35026;SDS011;60696;51.426;6.934;2022-12-18T04:24:50;4.75;;;1.35;;
35026;SDS011;60696;51.426;6.934;2022-12-18T04:27:16;3.28;;;1.80;;
35026;SDS011;60696;51.426;6.934;2022-12-18T04:29:41;3.75;;;1.73;;
35026;SDS011;60696;51.426;6.934;2022-12-18T04:32:07;2.80;;;1.50;;
35026;SDS011;60696;51.426;6.934;2022-12-18T04:34:33;3.38;;;1.95;;
35026;SDS011;60696;51.426;6.934;2022-12-18T04:36:59;6.13;;;1.63;;
35026;SDS011;60696;51.426;6.934;2022-12-18T04:39:24;3.13;;;1.60;;
35026;SDS011;60696;51.426;6.934;2022-12-18T04:41:50;3.03;;;1.55;;
35026;SDS011;60696;51.426;6.934;2022-12-18T04:44:15;6.13;;;2.28;;
35026;SDS011;60696;51.426;6.934;2022-12-18T04:46:41;3.83;;;1.70;;
35026;SDS011;60696;51.426;6.934;2022-12-18T04:49:06;3.63;;;2.05;;
35026;SDS011;60696;51.426;6.934;2022-12-18T04:51:32;4.68;;;1.70;;
35026;SDS011;60696;51.426;6.934;2022-12-18T04:53:58;3.28;;;1.77;;
35026;SDS011;60696;51.426;6.934;2022-12-18T04:56:23;3.67;;;1.92;;
35026;SDS011;60696;51.426;6.934;2022-12-18T04:58:49;4.22;;;1.75;;
35026;SDS011;60696;51.426;6.934;2022-12-18T05:01:15;3.78;;;1.67;;
35026;SDS011;60696;51.426;6.934;2022-12-18T05:03:42;3.88;;;1.70;;
35026;SDS011;60696;51.426;6.934;2022-12-18T05:06:08;3.70;;;1.73;;
35026;SDS011;60696;51.426;6.934;2022-12-18T05:08:34;3.95;;;1.95;;
35026;SDS011;60696;51.426;6.934;2022-12-18T05:13:27;3.38;;;1.90;;
35026;SDS011;60696;51.426;6.934;2022-12-18T05:15:53;2.10;;;1.25;;
35026;SDS011;60696;51.426;6.934;2022-12-18T05:18:19;3.17;;;1.67;;
35026;SDS011;60696;51.426;6.934;2022-12-18T05:20:44;2.92;;;1.58;;
35026;SDS011;60696;51.426;6.934;2022-12-18T05:23:10;5.38;;;1.52;;
35026;SDS011;60696;51.426;6.934;2022-12-18T05:25:35;4.38;;;1.77;;
35026;SDS011;60696;51.426;6.934;2022-12-18T05:28:01;3.08;;;1.75;;
35026;SDS011;60696;51.426;6.934;2022-12-18T05:30:27;5.03;;;1.48;;
35026;SDS011;60696;51.426;6.934;2022-12-18T05:32:52;2.65;;;1.45;;
35026;SDS011;60696;51.426;6.934;2022-12-18T05:35:18;7.15;;;1.48;;
35026;SDS011;60696;51.426;6.934;2022-12-18T05:37:44;4.20;;;1.92;;
35026;SDS011;60696;51.426;6.934;2022-12-18T05:40:10;3.28;;;1.52;;
35026;SDS011;60696;51.426;6.934;2022-12-18T05:42:36;2.88;;;1.13;;
35026;SDS011;60696;51.426;6.934;2022-12-18T05:45:02;3.38;;;1.70;;
35026;SDS011;60696;51.426;6.934;2022-12-18T05:47:28;3.30;;;1.60;;
35026;SDS011;60696;51.426;6.934;2022-12-18T05:49:54;4.25;;;1.23;;
35026;SDS011;60696;51.426;6.934;2022-12-18T05:52:19;4.85;;;1.77;;
35026;SDS011;60696;51.426;6.934;2022-12-18T05:54:45;3.40;;;1.52;;
35026;SDS011;60696;51.426;6.934;2022-12-18T05:57:11;5.35;;;1.30;;
35026;SDS011;60696;51.426;6.934;2022-12-18T05:59:36;2.88;;;1.00;;
35026;SDS011;60696;51.426;6.934;2022-12-18T06:02:02;2.25;;;1.10;;
35026;SDS011;60696;51.426;6.934;2022-12-18T06:04:28;3.28;;;1.60;;
35026;SDS011;60696;51.426;6.934;2022-12-18T06:06:56;4.05;;;1.40;;
35026;SDS011;60696;51.426;6.934;2022-12-18T06:09:22;2.60;;;1.30;;
35026;SDS011;60696;51.426;6.934;2022-12-18T06:11:48;3.55;;;1.40;;
35026;SDS011;60696;51.426;6.934;2022-12-18T06:14:16;3.78;;;1.40;;
35026;SDS011;60696;51.426;6.934;2022-12-18T06:16:42;3.95;;;1.38;;
35026;SDS011;60696;51.426;6.934;2022-12-18T06:19:07;3.72;;;1.60;;
35026;SDS011;60696;51.426;6.934;2022-12-18T06:21:38;2.40;;;1.40;;
35026;SDS011;60696;51.426;6.934;2022-12-18T06:24:04;3.03;;;1.55;;
35026;SDS011;60696;51.426;6.934;2022-12-18T06:26:29;3.88;;;1.42;;
35026;SDS011;60696;51.426;6.934;2022-12-18T06:28:55;2.95;;;0.98;;
35026;SDS011;60696;51.426;6.934;2022-12-18T06:31:21;2.33;;;1.27;;
35026;SDS011;60696;51.426;6.934;2022-12-18T06:33:46;2.95;;;1.73;;
35026;SDS011;60696;51.426;6.934;2022-12-18T06:36:13;2.17;;;0.98;;
35026;SDS011;60696;51.426;6.934;2022-12-18T06:38:40;3.00;;;1.65;;
35026;SDS011;60696;51.426;6.934;2022-12-18T06:41:11;3.63;;;1.05;;
35026;SDS011;60696;51.426;6.934;2022-12-18T06:43:41;4.25;;;1.08;;
35026;SDS011;60696;51.426;6.934;2022-12-18T06:46:07;2.15;;;0.90;;
35026;SDS011;60696;51.426;6.934;2022-12-18T06:48:33;3.67;;;1.25;;
35026;SDS011;60696;51.426;6.934;2022-12-18T06:50:59;1.50;;;1.00;;
35026;SDS011;60696;51.426;6.934;2022-12-18T06:53:25;2.83;;;1.02;;
35026;SDS011;60696;51.426;6.934;2022-12-18T06:55:51;2.80;;;1.02;;
35026;SDS011;60696;51.426;6.934;2022-12-18T06:58:17;3.22;;;1.27;;
35026;SDS011;60696;51.426;6.934;2022-12-18T07:00:43;4.07;;;1.40;;
35026;SDS011;60696;51.426;6.934;2022-12-18T07:03:09;5.75;;;1.73;;
35026;SDS011;60696;51.426;6.934;2022-12-18T07:05:39;4.20;;;1.27;;
35026;SDS011;60696;51.426;6.934;2022-12-18T07:08:05;2.85;;;1.35;;
35026;SDS011;60696;51.426;6.934;2022-12-18T07:10:31;2.25;;;1.30;;
35026;SDS011;60696;51.426;6.934;2022-12-18T07:12:57;3.13;;;1.30;;
35026;SDS011;60696;51.426;6.934;2022-12-18T07:15:22;3.25;;;1.50;;
35026;SDS011;60696;51.426;6.934;2022-12-18T07:17:48;2.90;;;1.25;;
35026;SDS011;60696;51.426;6.934;2022-12-18T07:20:13;1.17;;;0.77;;
35026;SDS011;60696;51.426;6.934;2022-12-18T07:22:39;2.22;;;1.48;;
35026;SDS011;60696;51.426;6.934;2022-12-18T07:25:05;2.58;;;1.35;;
35026;SDS011;60696;51.426;6.934;2022-12-18T07:27:31;2.08;;;1.02;;
35026;SDS011;60696;51.426;6.934;2022-12-18T07:29:57;2.13;;;1.10;;
35026;SDS011;60696;51.426;6.934;2022-12-18T07:32:22;3.15;;;1.50;;
35026;SDS011;60696;51.426;6.934;2022-12-18T07:34:48;1.52;;;1.05;;
35026;SDS011;60696;51.426;6.934;2022-12-18T07:37:13;2.55;;;0.88;;
35026;SDS011;60696;51.426;6.934;2022-12-18T07:39:39;3.67;;;1.45;;
35026;SDS011;60696;51.426;6.934;2022-12-18T07:42:04;2.05;;;1.10;;
35026;SDS011;60696;51.426;6.934;2022-12-18T07:44:48;2.92;;;1.10;;
35026;SDS011;60696;51.426;6.934;2022-12-18T07:47:14;3.35;;;1.10;;
35026;SDS011;60696;51.426;6.934;2022-12-18T07:49:39;3.78;;;0.85;;
35026;SDS011;60696;51.426;6.934;2022-12-18T07:52:05;2.10;;;1.00;;
35026;SDS011;60696;51.426;6.934;2022-12-18T07:54:31;2.83;;;1.13;;
35026;SDS011;60696;51.426;6.934;2022-12-18T07:56:56;3.35;;;1.40;;
35026;SDS011;60696;51.426;6.934;2022-12-18T07:59:22;8.18;;;2.00;;
35026;SDS011;60696;51.426;6.934;2022-12-18T08:01:47;3.50;;;0.95;;
35026;SDS011;60696;51.426;6.934;2022-12-18T08:04:13;3.03;;;1.05;;
35026;SDS011;60696;51.426;6.934;2022-12-18T08:06:38;1.25;;;0.63;;
35026;SDS011;60696;51.426;6.934;2022-12-18T08:09:04;1.80;;;0.98;;
35026;SDS011;60696;51.426;6.934;2022-12-18T08:11:30;7.22;;;0.90;;
35026;SDS011;60696;51.426;6.934;2022-12-18T08:13:56;1.30;;;0.85;;
35026;SDS011;60696;51.426;6.934;2022-12-18T08:16:22;2.97;;;1.23;;
35026;SDS011;60696;51.426;6.934;2022-12-18T08:18:48;2.95;;;1.30;;
35026;SDS011;60696;51.426;6.934;2022-12-18T08:21:18;1.70;;;0.77;;
35026;SDS011;60696;51.426;6.934;2022-12-18T08:23:47;1.92;;;0.98;;
35026;SDS011;60696;51.426;6.934;2022-12-18T08:26:14;2.72;;;1.20;;
35026;SDS011;60696;51.426;6.934;2022-12-18T08:28:40;1.67;;;0.88;;
35026;SDS011;60696;51.426;6.934;2022-12-18T08:31:07;1.98;;;1.10;;
35026;SDS011;60696;51.426;6.934;2022-12-18T08:33:33;2.90;;;1.20;;
35026;SDS011;60696;51.426;6.934;2022-12-18T08:35:59;3.00;;;1.00;;
35026;SDS011;60696;51.426;6.934;2022-12-18T08:38:26;2.17;;;1.05;;
35026;SDS011;60696;51.426;6.934;2022-12-18T08:41:01;3.08;;;1.10;;
35026;SDS011;60696;51.426;6.934;2022-12-18T08:43:28;2.65;;;0.82;;
35026;SDS011;60696;51.426;6.934;2022-12-18T08:46:13;3.22;;;1.10;;
35026;SDS011;60696;51.426;6.934;2022-12-18T08:48:41;3.17;;;1.38;;
35026;SDS011;60696;51.426;6.934;2022-12-18T08:51:07;3.30;;;1.65;;
35026;SDS011;60696;51.426;6.934;2022-12-18T08:53:34;1.65;;;1.00;;
35026;SDS011;60696;51.426;6.934;2022-12-18T08:56:00;2.97;;;1.50;;
35026;SDS011;60696;51.426;6.934;2022-12-18T08:58:26;3.33;;;1.70;;
35026;SDS011;60696;51.426;6.934;2022-12-18T09:00:52;2.38;;;1.60;;
35026;SDS011;60696;51.426;6.934;2022-12-18T09:03:18;3.08;;;1.73;;
35026;SDS011;60696;51.426;6.934;2022-12-18T09:05:45;3.85;;;1.60;;
35026;SDS011;60696;51.426;6.934;2022-12-18T09:08:11;4.35;;;2.45;;
35026;SDS011;60696;51.426;6.934;2022-12-18T09:10:43;3.15;;;1.58;;
35026;SDS011;60696;51.426;6.934;2022-12-18T09:13:10;3.60;;;1.77;;
35026;SDS011;60696;51.426;6.934;2022-12-18T09:15:40;1.75;;;1.20;;
35026;SDS011;60696;51.426;6.934;2022-12-18T09:18:07;3.28;;;1.73;;
35026;SDS011;60696;51.426;6.934;2022-12-18T09:20:32;2.42;;;1.48;;
35026;SDS011;60696;51.426;6.934;2022-12-18T09:22:58;2.90;;;1.73;;
35026;SDS011;60696;51.426;6.934;2022-12-18T09:25:23;2.33;;;1.20;;
35026;SDS011;60696;51.426;6.934;2022-12-18T09:27:49;2.88;;;1.13;;
35026;SDS011;60696;51.426;6.934;2022-12-18T09:30:14;4.82;;;1.77;;
35026;SDS011;60696;51.426;6.934;2022-12-18T09:32:40;2.60;;;1.40;;
35026;SDS011;60696;51.426;6.934;2022-12-18T09:35:06;2.30;;;1.20;;
35026;SDS011;60696;51.426;6.934;2022-12-18T09:37:32;2.95;;;1.30;;
35026;SDS011;60696;51.426;6.934;2022-12-18T09:39:57;1.98;;;1.05;;
35026;SDS011;60696;51.426;6.934;2022-12-18T09:42:23;3.55;;;1.50;;
35026;SDS011;60696;51.426;6.934;2022-12-18T09:44:50;3.17;;;1.50;;
35026;SDS011;60696;51.426;6.934;2022-12-18T09:47:36;2.08;;;1.13;;
35026;SDS011;60696;51.426;6.934;2022-12-18T09:50:05;3.22;;;1.60;;
35026;SDS011;60696;51.426;6.934;2022-12-18T09:52:54;3.25;;;1.75;;
35026;SDS011;60696;51.426;6.934;2022-12-18T09:58:07;3.78;;;1.60;;
35026;SDS011;60696;51.426;6.934;2022-12-18T10:00:45;2.83;;;1.35;;
35026;SDS011;60696;51.426;6.934;2022-12-18T10:03:12;3.33;;;1.85;;
35026;SDS011;60696;51.426;6.934;2022-12-18T10:08:33;3.10;;;1.42;;
35026;SDS011;60696;51.426;6.934;2022-12-18T10:11:10;2.50;;;1.27;;
35026;SDS011;60696;51.426;6.934;2022-12-18T10:14:09;5.10;;;1.90;;
35026;SDS011;60696;51.426;6.934;2022-12-18T10:19:52;3.25;;;1.80;;
35026;SDS011;60696;51.426;6.934;2022-12-18T10:28:07;3.28;;;1.75;;
35026;SDS011;60696;51.426;6.934;2022-12-18T10:30:37;3.60;;;1.70;;
35026;SDS011;60696;51.426;6.934;2022-12-18T10:33:04;4.18;;;2.05;;
35026;SDS011;60696;51.426;6.934;2022-12-18T10:35:29;4.03;;;1.63;;
35026;SDS011;60696;51.426;6.934;2022-12-18T10:38:56;4.60;;;2.13;;
35026;SDS011;60696;51.426;6.934;2022-12-18T10:46:00;4.13;;;2.13;;
35026;SDS011;60696;51.426;6.934;2022-12-18T10:48:40;3.90;;;2.15;;
35026;SDS011;60696;51.426;6.934;2022-12-18T10:51:16;3.45;;;2.08;;
35026;SDS011;60696;51.426;6.934;2022-12-18T10:56:47;4.50;;;2.00;;
35026;SDS011;60696;51.426;6.934;2022-12-18T10:59:14;5.22;;;2.40;;
35026;SDS011;60696;51.426;6.934;2022-12-18T11:01:51;3.72;;;2.08;;
35026;SDS011;60696;51.426;6.934;2022-12-18T11:04:22;5.72;;;2.22;;
35026;SDS011;60696;51.426;6.934;2022-12-18T11:11:52;3.05;;;1.95;;
35026;SDS011;60696;51.426;6.934;2022-12-18T11:14:21;4.10;;;2.00;;
35026;SDS011;60696;51.426;6.934;2022-12-18T11:17:17;4.40;;;2.10;;
35026;SDS011;60696;51.426;6.934;2022-12-18T11:19:53;5.20;;;2.40;;
35026;SDS011;60696;51.426;6.934;2022-12-18T11:22:28;5.63;;;2.35;;
35026;SDS011;60696;51.426;6.934;2022-12-18T11:24:59;5.22;;;2.50;;
35026;SDS011;60696;51.426;6.934;2022-12-18T11:27:25;4.40;;;2.40;;
35026;SDS011;60696;51.426;6.934;2022-12-18T11:29:51;4.75;;;2.33;;
35026;SDS011;60696;51.426;6.934;2022-12-18T11:35:26;4.15;;;1.80;;
35026;SDS011;60696;51.426;6.934;2022-12-18T11:38:02;4.65;;;2.15;;
35026;SDS011;60696;51.426;6.934;2022-12-18T11:40:36;4.07;;;2.35;;
35026;SDS011;60696;51.426;6.934;2022-12-18T11:43:26;4.95;;;2.10;;
35026;SDS011;60696;51.426;6.934;2022-12-18T11:46:23;3.67;;;2.15;;
35026;SDS011;60696;51.426;6.934;2022-12-18T11:48:49;4.90;;;2.55;;
35026;SDS011;60696;51.426;6.934;2022-12-18T11:51:29;4.93;;;1.85;;
35026;SDS011;60696;51.426;6.934;2022-12-18T11:54:07;4.38;;;2.17;;
35026;SDS011;60696;51.426;6.934;2022-12-18T11:59:56;3.67;;;2.10;;
35026;SDS011;60696;51.426;6.934;2022-12-18T12:02:20;5.15;;;2.53;;
35026;SDS011;60696;51.426;6.934;2022-12-18T12:05:04;7.32;;;2.33;;
35026;SDS011;60696;51.426;6.934;2022-12-18T12:21:35;5.00;;;2.75;;
35026;SDS011;60696;51.426;6.934;2022-12-18T12:24:34;3.60;;;2.03;;
35026;SDS011;60696;51.426;6.934;2022-12-18T12:27:23;5.53;;;2.40;;
35026;SDS011;60696;51.426;6.934;2022-12-18T12:40:39;6.82;;;2.95;;
35026;SDS011;60696;51.426;6.934;2022-12-18T12:48:36;4.00;;;2.45;;
35026;SDS011;60696;51.426;6.934;2022-12-18T12:53:43;7.07;;;3.22;;
35026;SDS011;60696;51.426;6.934;2022-12-18T12:56:10;5.05;;;2.72;;
35026;SDS011;60696;51.426;6.934;2022-12-18T13:01:43;8.13;;;3.20;;
35026;SDS011;60696;51.426;6.934;2022-12-18T13:04:18;6.38;;;3.33;;
35026;SDS011;60696;51.426;6.934;2022-12-18T13:07:00;7.50;;;3.10;;
35026;SDS011;60696;51.426;6.934;2022-12-18T13:09:35;10.07;;;3.42;;
35026;SDS011;60696;51.426;6.934;2022-12-18T13:12:52;10.52;;;3.83;;
35026;SDS011;60696;51.426;6.934;2022-12-18T13:15:28;7.13;;;3.47;;
35026;SDS011;60696;51.426;6.934;2022-12-18T13:28:20;5.32;;;3.08;;
35026;SDS011;60696;51.426;6.934;2022-12-18T13:30:59;13.40;;;3.90;;
35026;SDS011;60696;51.426;6.934;2022-12-18T13:36:02;7.15;;;3.83;;
35026;SDS011;60696;51.426;6.934;2022-12-18T13:38:37;5.75;;;2.50;;
35026;SDS011;60696;51.426;6.934;2022-12-18T13:43:45;5.82;;;2.42;;
35026;SDS011;60696;51.426;6.934;2022-12-18T13:51:52;9.93;;;3.65;;
35026;SDS011;60696;51.426;6.934;2022-12-18T13:54:20;6.57;;;4.05;;
35026;SDS011;60696;51.426;6.934;2022-12-18T13:57:01;8.02;;;3.22;;
35026;SDS011;60696;51.426;6.934;2022-12-18T13:59:34;8.88;;;3.85;;
35026;SDS011;60696;51.426;6.934;2022-12-18T14:02:12;4.55;;;2.60;;
35026;SDS011;60696;51.426;6.934;2022-12-18T14:04:40;7.22;;;3.20;;
35026;SDS011;60696;51.426;6.934;2022-12-18T14:07:22;8.95;;;4.03;;
35026;SDS011;60696;51.426;6.934;2022-12-18T14:09:51;6.28;;;3.60;;
35026;SDS011;60696;51.426;6.934;2022-12-18T14:12:25;8.25;;;4.18;;
35026;SDS011;60696;51.426;6.934;2022-12-18T14:15:25;6.95;;;2.03;;
35026;SDS011;60696;51.426;6.934;2022-12-18T14:20:43;6.40;;;3.20;;
35026;SDS011;60696;51.426;6.934;2022-12-18T14:26:29;7.90;;;3.88;;
35026;SDS011;60696;51.426;6.934;2022-12-18T14:28:57;7.93;;;4.18;;
35026;SDS011;60696;51.426;6.934;2022-12-18T14:31:43;11.68;;;4.80;;
35026;SDS011;60696;51.426;6.934;2022-12-18T14:34:14;8.70;;;4.85;;
35026;SDS011;60696;51.426;6.934;2022-12-18T14:36:40;6.25;;;3.53;;
35026;SDS011;60696;51.426;6.934;2022-12-18T14:39:16;13.73;;;3.13;;
35026;SDS011;60696;51.426;6.934;2022-12-18T14:41:43;10.90;;;4.80;;
35026;SDS011;60696;51.426;6.934;2022-12-18T14:44:10;8.10;;;5.10;;
35026;SDS011;60696;51.426;6.934;2022-12-18T14:46:38;8.02;;;4.40;;
35026;SDS011;60696;51.426;6.934;2022-12-18T14:52:05;9.00;;;4.55;;
35026;SDS011;60696;51.426;6.934;2022-12-18T14:54:45;11.48;;;4.85;;
35026;SDS011;60696;51.426;6.934;2022-12-18T14:59:47;8.73;;;4.22;;
35026;SDS011;60696;51.426;6.934;2022-12-18T15:04:59;12.95;;;6.75;;
35026;SDS011;60696;51.426;6.934;2022-12-18T15:07:38;12.48;;;5.93;;
35026;SDS011;60696;51.426;6.934;2022-12-18T15:13:20;10.48;;;4.65;;
35026;SDS011;60696;51.426;6.934;2022-12-18T15:15:49;9.02;;;5.28;;
35026;SDS011;60696;51.426;6.934;2022-12-18T15:18:16;6.95;;;2.95;;
35026;SDS011;60696;51.426;6.934;2022-12-18T15:23:21;9.30;;;4.75;;
35026;SDS011;60696;51.426;6.934;2022-12-18T15:26:06;14.15;;;5.78;;
35026;SDS011;60696;51.426;6.934;2022-12-18T15:28:34;11.85;;;5.93;;
35026;SDS011;60696;51.426;6.934;2022-12-18T15:38:47;11.02;;;6.30;;
35026;SDS011;60696;51.426;6.934;2022-12-18T15:41:15;9.10;;;5.43;;
35026;SDS011;60696;51.426;6.934;2022-12-18T15:43:45;12.10;;;7.18;;
35026;SDS011;60696;51.426;6.934;2022-12-18T15:46:13;14.40;;;6.28;;
35026;SDS011;60696;51.426;6.934;2022-12-18T15:48:47;9.82;;;4.90;;
35026;SDS011;60696;51.426;6.934;2022-12-18T15:54:04;13.55;;;5.72;;
35026;SDS011;60696;51.426;6.934;2022-12-18T15:56:34;12.30;;;6.68;;
35026;SDS011;60696;51.426;6.934;2022-12-18T15:59:19;10.73;;;5.88;;
35026;SDS011;60696;51.426;6.934;2022-12-18T16:01:46;18.20;;;11.05;;
35026;SDS011;60696;51.426;6.934;2022-12-18T16:04:18;16.20;;;7.22;;
35026;SDS011;60696;51.426;6.934;2022-12-18T16:06:45;15.90;;;6.95;;
35026;SDS011;60696;51.426;6.934;2022-12-18T16:09:11;19.27;;;7.68;;
35026;SDS011;60696;51.426;6.934;2022-12-18T16:11:37;12.65;;;7.05;;
35026;SDS011;60696;51.426;6.934;2022-12-18T16:14:17;15.52;;;6.80;;
35026;SDS011;60696;51.426;6.934;2022-12-18T16:16:51;14.45;;;6.43;;
35026;SDS011;60696;51.426;6.934;2022-12-18T16:19:28;17.02;;;8.40;;
35026;SDS011;60696;51.426;6.934;2022-12-18T16:21:54;14.57;;;7.82;;
35026;SDS011;60696;51.426;6.934;2022-12-18T16:24:23;13.70;;;7.90;;
35026;SDS011;60696;51.426;6.934;2022-12-18T16:26:50;19.10;;;8.68;;
35026;SDS011;60696;51.426;6.934;2022-12-18T16:29:17;19.25;;;8.43;;
35026;SDS011;60696;51.426;6.934;2022-12-18T16:31:43;15.88;;;6.47;;
35026;SDS011;60696;51.426;6.934;2022-12-18T16:34:13;13.55;;;6.05;;
35026;SDS011;60696;51.426;6.934;2022-12-18T16:36:47;15.75;;;7.63;;
35026;SDS011;60696;51.426;6.934;2022-12-18T16:39:14;16.02;;;7.63;;
35026;SDS011;60696;51.426;6.934;2022-12-18T16:41:39;15.43;;;8.43;;
35026;SDS011;60696;51.426;6.934;2022-12-18T16:44:05;20.92;;;11.63;;
35026;SDS011;60696;51.426;6.934;2022-12-18T16:46:31;16.08;;;7.57;;
35026;SDS011;60696;51.426;6.934;2022-12-18T16:48:57;16.75;;;8.52;;
35026;SDS011;60696;51.426;6.934;2022-12-18T16:51:24;13.73;;;6.95;;
35026;SDS011;60696;51.426;6.934;2022-12-18T16:53:50;12.25;;;6.10;;
35026;SDS011;60696;51.426;6.934;2022-12-18T16:56:17;13.93;;;8.10;;
35026;SDS011;60696;51.426;6.934;2022-12-18T16:58:42;15.20;;;8.20;;
35026;SDS011;60696;51.426;6.934;2022-12-18T17:01:09;14.82;;;7.97;;
35026;SDS011;60696;51.426;6.934;2022-12-18T17:03:35;21.13;;;11.93;;
35026;SDS011;60696;51.426;6.934;2022-12-18T17:06:04;14.00;;;7.45;;
35026;SDS011;60696;51.426;6.934;2022-12-18T17:08:30;15.27;;;7.43;;
35026;SDS011;60696;51.426;6.934;2022-12-18T17:11:02;18.67;;;9.68;;
35026;SDS011;60696;51.426;6.934;2022-12-18T17:13:30;20.63;;;9.93;;
35026;SDS011;60696;51.426;6.934;2022-12-18T17:16:00;20.98;;;10.57;;
35026;SDS011;60696;51.426;6.934;2022-12-18T17:20:57;16.90;;;8.90;;
35026;SDS011;60696;51.426;6.934;2022-12-18T17:23:26;17.45;;;9.23;;
35026;SDS011;60696;51.426;6.934;2022-12-18T17:25:53;15.75;;;8.77;;
35026;SDS011;60696;51.426;6.934;2022-12-18T17:28:20;19.85;;;12.23;;
35026;SDS011;60696;51.426;6.934;2022-12-18T17:33:37;18.80;;;9.50;;
35026;SDS011;60696;51.426;6.934;2022-12-18T17:36:33;18.60;;;9.43;;
35026;SDS011;60696;51.426;6.934;2022-12-18T17:39:06;16.42;;;9.75;;
35026;SDS011;60696;51.426;6.934;2022-12-18T17:41:35;19.60;;;10.45;;
35026;SDS011;60696;51.426;6.934;2022-12-18T17:44:02;12.98;;;7.32;;